Flight Track Log - Related Links

Times and Time Zones

All times are in EDT time to prevent confusion due to time zone crossing. See the SWA2272 flight status page for this flight to view local times or setup timezone preferences in your user account.

Time Position Orientation Groundspeed Altitude Reporting Facility
EDT Latitude Longitude Course Direction KTS MPH feet Rate Location/Type
Sun 01:40:43 PM 34.1808 -118.3564 222° Southwest 163 188 39,000  Level Los Center
Sun 01:41:45 PM 34.1456 -118.3944 222° Southwest 190 219 3,600 -15,532 Descending Los Center
Sun 01:42:47 PM 34.1428 -118.4611 267° West 240 276 6,900 3,484 Climbing Los Center
Sun 01:43:49 PM 34.2186 -118.4428 11° North 241 277 10,800 2,419 Climbing Los Center
Sun 01:44:51 PM 34.3025 -118.4047 21° North 312 359 11,900 2,613 Climbing Los Center
Sun 01:45:53 PM 34.4003 -118.3617 20° North 369 425 16,200 2,855 Climbing Los Center
Sun 01:46:55 PM 34.4528 -118.2608 58° Northeast 375 432 17,800 2,081 Climbing Los Center
Sun 01:47:57 PM 34.4906 -118.1406 69° East 396 456 20,500 2,688 Climbing Los Center
Sun 01:49:00 PM 34.5389 -117.9869 69° East 409 471 23,400 2,400 Climbing Los Center
Sun 01:50:02 PM 34.5786 -117.8544 70° East 419 482 25,500 1,984 Climbing Los Center
Sun 01:51:04 PM 34.6406 -117.7289 59° Northeast 435 501 27,500 2,081 Climbing Los Center
Sun 01:52:06 PM 34.7083 -117.6103 55° Northeast 433 498 29,800 1,694 Climbing Los Center
Sun 01:53:08 PM 34.7764 -117.4919 55° Northeast 432 497 31,000 581 Climbing Los Center
Sun 01:54:10 PM 34.8578 -117.3489 55° Northeast 435 501 31,000 726 Level Los Center
Sun 01:55:12 PM 34.9253 -117.2308 55° Northeast 431 496 32,500 1,742 Climbing Los Center
Sun 01:56:14 PM 34.9917 -117.1158 55° Northeast 420 483 34,600 1,742 Climbing Los Center
Sun 01:57:16 PM 35.0558 -117.0036 55° Northeast 409 471 36,100 1,403 Climbing Los Center
Sun 01:58:18 PM 35.1206 -116.8886 55° Northeast 412 474 37,500 1,403 Climbing Los Center
Sun 01:59:20 PM 35.1969 -116.7533 55° Northeast 405 466 39,000 1,296 Climbing Los Center
Sun 02:00:23 PM 35.2625 -116.6417 54° Northeast 403 464 40,200 960 Climbing Los Center
Sun 02:01:25 PM 35.3256 -116.5281 56° Northeast 405 466 41,000 387 Climbing Los Center
Sun 02:02:27 PM 35.3883 -116.4175 55° Northeast 399 459 41,000  Level Los Center
Sun 02:03:29 PM 35.4511 -116.3056 55° Northeast 399 459 41,000  Level Los Center
Sun 02:04:31 PM 35.5264 -116.1692 56° Northeast 403 464 41,000  Level Los Center
Sun 02:05:33 PM 35.5897 -116.0564 55° Northeast 402 463 41,000  Level Los Center
Sun 02:06:35 PM 35.6519 -115.9439 56° Northeast 400 460 41,000  Level Los Center
Sun 02:07:37 PM 35.7125 -115.8342 56° Northeast 392 451 41,000  Level Los Center
Sun 02:08:39 PM 35.7742 -115.7242 55° Northeast 389 448 41,000  Level Los Center
Sun 02:09:41 PM 35.8475 -115.5889 56° Northeast 395 455 41,000  Level Los Center
Sun 02:10:43 PM 35.9075 -115.4778 56° Northeast 394 453 41,000  Level Los Center
Sun 02:11:46 PM 35.9692 -115.3653 56° Northeast 397 457 41,000  Level Los Center
Sun 02:12:48 PM 36.0292 -115.2542 56° Northeast 391 450 41,000  Level Los Center
Sun 02:13:50 PM 36.0864 -115.1394 58° Northeast 394 453 41,000  Level Los Center
Sun 02:14:52 PM 36.1331 -114.9872 69° East 397 457 41,000  Level Los Center
Sun 02:15:54 PM 36.1708 -114.8600 70° East 396 456 41,000  Level Los Center
Sun 02:16:56 PM 36.2106 -114.7339 69° East 395 455 41,000  Level Los Center
Sun 02:17:58 PM 36.2472 -114.6058 70° East 396 456 41,000  Level Los Center
Sun 02:19:00 PM 36.2833 -114.4767 71° East 398 458 41,000  Level Los Center
Sun 02:20:02 PM 36.3289 -114.3233 70° East 397 457 41,000  Level Los Center
Sun 02:21:04 PM 36.3653 -114.1919 71° East 403 464 41,000  Level Los Center
Sun 02:22:07 PM 36.4022 -114.0622 70° East 401 461 41,000  Level Los Center
Sun 02:23:09 PM 36.4389 -113.9328 71° East 399 459 41,000  Level Los Center
Sun 02:24:11 PM 36.4767 -113.8022 70° East 402 463 41,000  Level Los Center
Sun 02:25:13 PM 36.5142 -113.6697 71° East 403 464 41,000  Level Los Center
Sun 02:26:15 PM 36.5564 -113.5131 71° East 401 461 41,000  Level Los Center
Sun 02:27:17 PM 36.5931 -113.3828 71° East 400 460 41,000  Level Los Center
Sun 02:28:19 PM 36.6292 -113.2517 71° East 402 463 41,000  Level Los Center
Sun 02:29:21 PM 36.6644 -113.1203 71° East 402 463 41,000  Level Los Center
Sun 02:30:23 PM 36.7011 -112.9897 71° East 402 463 41,000  Level Los Center
Sun 02:31:26 PM 36.7364 -112.8592 71° East 400 460 41,000  Level Los Center
Sun 02:32:28 PM 36.7783 -112.7025 71° East 400 460 41,000  Level Los Center
Sun 02:33:30 PM 36.8133 -112.5714 72° East 400 460 41,000  Level Los Center
Sun 02:34:32 PM 36.8497 -112.4392 71° East 404 465 41,000  Level Los Center
Sun 02:35:34 PM 36.8842 -112.3089 72° East 400 460 41,000  Level Los Center
Sun 02:36:36 PM 36.9186 -112.1772 72° East 400 460 41,000  Level Los Center
Sun 02:37:03 PM 36.9408 -112.0983 71° East 399 459 41,000  Level Denver Center
Sun 02:38:05 PM 36.9744 -111.9681 72° East 398 458 41,000  Level Denver Center
Sun 02:39:07 PM 37.0094 -111.8375 71° East 397 457 41,000  Level Denver Center
Sun 02:40:08 PM 37.0444 -111.7072 71° East 397 457 41,000  Level Denver Center
Sun 02:41:10 PM 37.0783 -111.5761 72° East 397 457 41,000  Level Denver Center
Sun 02:42:12 PM 37.1317 -111.4339 65° Northeast 381 438 41,000  Level Denver Center
Sun 02:43:13 PM 37.1775 -111.3125 65° Northeast 386 444 41,000  Level Denver Center
Sun 02:44:15 PM 37.2242 -111.1906 64° Northeast 388 447 41,000  Level Denver Center
Sun 02:45:17 PM 37.2708 -111.0694 64° Northeast 388 447 41,000  Level Denver Center
Sun 02:46:18 PM 37.3150 -110.9483 65° Northeast 385 443 41,000  Level Denver Center
Sun 02:47:20 PM 37.3619 -110.8264 64° Northeast 387 445 41,000  Level Denver Center
Sun 02:48:22 PM 37.4069 -110.7036 65° Northeast 387 445 41,000  Level Denver Center
Sun 02:49:23 PM 37.4631 -110.5564 64° Northeast 389 448 41,000  Level Denver Center
Sun 02:50:25 PM 37.5069 -110.4364 65° Northeast 393 452 41,000  Level Denver Center
Sun 02:51:27 PM 37.5517 -110.3172 65° Northeast 393 452 41,000  Level Denver Center
Sun 02:52:29 PM 37.6028 -110.1794 65° Northeast 389 448 41,000  Level Denver Center
Sun 02:53:30 PM 37.6461 -110.0606 65° Northeast 389 448 41,000  Level Denver Center
Sun 02:54:32 PM 37.6978 -109.9203 65° Northeast 394 453 41,000  Level Denver Center
Sun 02:55:34 PM 37.7411 -109.8006 65° Northeast 392 451 41,000  Level Denver Center
Sun 02:56:35 PM 37.7853 -109.6803 65° Northeast 393 452 41,000  Level Denver Center
Sun 02:57:37 PM 37.8358 -109.5411 65° Northeast 390 449 41,000  Level Denver Center
Sun 02:58:39 PM 37.8775 -109.4222 66° East 387 445 41,000  Level Denver Center
Sun 02:59:41 PM 37.9275 -109.2847 65° Northeast 385 443 41,000  Level Denver Center
Sun 03:00:43 PM 37.9689 -109.1683 66° East 380 437 41,000  Level Denver Center
Sun 03:01:44 PM 38.0178 -109.0303 66° East 383 441 41,000  Level Denver Center
Sun 03:02:46 PM 38.0567 -108.9203 66° East 382 440 41,000  Level Denver Center
Sun 03:03:48 PM 38.1061 -108.7786 66° East 389 448 41,000  Level Denver Center
Sun 03:04:49 PM 38.1472 -108.6631 66° East 381 438 41,000  Level Denver Center
Sun 03:05:51 PM 38.1953 -108.5239 66° East 383 441 41,000  Level Denver Center
Sun 03:06:53 PM 38.2361 -108.4061 66° East 380 437 41,000  Level Denver Center
Sun 03:07:55 PM 38.2839 -108.2700 66° East 379 436 41,000  Level Denver Center
Sun 03:08:56 PM 38.3250 -108.1517 66° East 383 441 41,000  Level Denver Center
Sun 03:09:58 PM 38.3719 -108.0139 66° East 380 437 41,000  Level Denver Center
Sun 03:11:00 PM 38.4125 -107.8953 66° East 382 440 41,000 -484 Level Denver Center
Sun 03:12:02 PM 38.4594 -107.7583 66° East 380 437 40,000 -1,161 Descending Denver Center
Sun 03:13:04 PM 38.5017 -107.6344 66° East 393 452 38,600 -1,548 Descending Denver Center
Sun 03:14:06 PM 38.5431 -107.5097 67° East 399 459 36,800 -1,902 Descending Denver Center
Sun 03:15:07 PM 38.5917 -107.3639 67° East 401 461 34,700 -1,951 Descending Denver Center
Sun 03:16:09 PM 38.6344 -107.2353 67° East 409 471 32,800 -1,742 Descending Denver Center
Sun 03:17:11 PM 38.6864 -107.0817 67° East 418 481 31,100 -871 Descending Denver Center
Sun 03:18:13 PM 38.7311 -106.9447 67° East 418 481 31,000 -48 Descending Denver Center
Sun 03:19:15 PM 38.7758 -106.8072 67° East 418 481 31,000  Level Denver Center
Sun 03:20:17 PM 38.8214 -106.6700 67° East 421 484 31,000  Level Denver Center
Sun 03:21:19 PM 38.8669 -106.5319 67° East 422 486 31,000  Level Denver Center
Sun 03:22:20 PM 38.9167 -106.3775 67° East 422 486 31,000  Level Denver Center
Sun 03:23:22 PM 38.9667 -106.2219 67° East 423 487 31,000  Level Denver Center
Sun 03:24:24 PM 39.0103 -106.0867 67° East 424 488 31,000 -484 Level Denver Center
Sun 03:25:26 PM 39.0547 -105.9469 68° East 424 488 30,000 -2,032 Descending Denver Center
Sun 03:26:28 PM 39.1033 -105.7936 68° East 424 488 26,800 -2,952 Descending Denver Center
Sun 03:27:30 PM 39.1469 -105.6569 68° East 430 495 23,900 -2,758 Descending Denver Center
Sun 03:28:32 PM 39.1892 -105.5253 67° East 424 488 21,100 -2,177 Descending Denver Center
Sun 03:29:34 PM 39.2378 -105.3694 68° East 406 467 19,400 -1,561 Descending Denver Center
Sun 03:30:35 PM 39.2756 -105.2175 72° East 413 475 17,900 -1,756 Descending Denver Center
Sun 03:31:37 PM 39.3011 -105.0708 77° East 420 483 15,800 -1,742 Descending Denver Center
Sun 03:32:39 PM 39.3275 -104.9328 76° East 404 465 14,300 -1,210 Descending Denver Center
Sun 03:33:41 PM 39.3558 -104.8036 74° East 349 402 13,300 -1,113 Descending Denver Center
Sun 03:34:43 PM 39.4136 -104.7297 45° Northeast 305 351 12,000 -1,306 Descending Denver Center
Sun 03:35:45 PM 39.4983 -104.7019 14° North 289 333 10,600 -1,065 Descending Denver Center
Sun 03:36:47 PM 39.5642 -104.6781 16° North 245 282 9,800 -1,122 Descending Denver Center
Sun 03:37:48 PM 39.6256 -104.6611 12° North 227 261 8,300 -1,366 Descending Denver Center
Sun 03:38:50 PM 39.6911 -104.6625 359° North 220 253 7,000 -629 Descending Denver Center
Sun 03:39:52 PM 39.7500 -104.6619 360° North 214 246 7,000 -435 Level Denver Center
Sun 03:40:54 PM 39.7978 -104.6614 North 163 188 6,100 -774 Descending Denver Center
Sun 03:41:56 PM 39.8364 -104.6606 North 153 176 5,400 -677 Descending Denver Center
Sun 03:43:00 PM 39.8500 -104.6667 North  Level FlightAware
Sun 03:50:00 PM 39.8617 -104.6732 North  Level Estimated
Sun 03:51:00 PM 39.8617 -104.6732 North  Level Estimated
Sun 03:52:00 PM 39.8617 -104.6732 North  Level Estimated

Login

Don't have an account? Register now (free) for customized features, flight alerts, and more!